AUA129 LOWG-LOWI

Flight info

Callsign AUA129
Flight time 0h 46m
Altitude 26000
Route MILGO DCT NANIT NANIT2A
Aircraft A320/M-SDE3FGHIRWY/LB1

Departure

Time 2026-05-01 07:34
Airport Graz Airport (LOWG)

Arrival

Time 2026-05-01 08:20
Airport Innsbruck Airport (LOWI)
Time Latitude Longitude Altitude Speed Heading
2026-05-01 07:23 46.99749 15.44334 1115 ft 0 kts 169°
2026-05-01 07:25 46.99765 15.44330 1107 ft 4 kts 169°
2026-05-01 07:25 46.99786 15.44324 1106 ft 3 kts 170°
2026-05-01 07:25 46.99811 15.44324 1109 ft 4 kts 211°
2026-05-01 07:25 46.99826 15.44351 1107 ft 3 kts 257°
2026-05-01 07:26 46.99827 15.44358 1107 ft 0 kts 259°
2026-05-01 07:29 46.99826 15.44354 1116 ft 4 kts 259°
2026-05-01 07:30 46.99818 15.44250 1113 ft 11 kts 286°
2026-05-01 07:30 46.99850 15.44169 1112 ft 8 kts 325°
2026-05-01 07:30 46.99901 15.44143 1116 ft 8 kts 347°
2026-05-01 07:30 46.99968 15.44121 1115 ft 12 kts 347°
2026-05-01 07:31 47.00050 15.44101 1114 ft 12 kts 353°
2026-05-01 07:31 47.00258 15.44044 1116 ft 11 kts 348°
2026-05-01 07:32 47.00413 15.43790 1120 ft 24 kts 302°
2026-05-01 07:32 47.00430 15.43626 1124 ft 6 kts 279°
2026-05-01 07:33 47.00390 15.43612 1123 ft 0 kts 169°
2026-05-01 07:33 47.00376 15.43616 1120 ft 21 kts 168°
2026-05-01 07:33 46.98962 15.44013 1155 ft 165 kts 169°
2026-05-01 07:34 46.97792 15.44340 1858 ft 169 kts 168°
2026-05-01 07:34 46.95730 15.44922 3836 ft 144 kts 174°
2026-05-01 07:34 46.94702 15.44681 4303 ft 161 kts 203°
2026-05-01 07:35 46.93745 15.43625 4560 ft 189 kts 236°
2026-05-01 07:35 46.93228 15.41785 4961 ft 206 kts 269°
2026-05-01 07:35 46.93511 15.39694 5371 ft 217 kts 305°
2026-05-01 07:35 46.94454 15.37952 6111 ft 220 kts 315°
2026-05-01 07:36 46.95454 15.36235 7052 ft 224 kts 315°
2026-05-01 07:36 46.96467 15.34486 7937 ft 227 kts 315°
2026-05-01 07:36 46.97528 15.32776 8860 ft 227 kts 324°
2026-05-01 07:36 46.98835 15.31501 9529 ft 237 kts 339°
2026-05-01 07:37 47.02110 15.29218 10619 ft 281 kts 339°
2026-05-01 07:37 47.03949 15.27935 11007 ft 305 kts 339°
2026-05-01 07:37 47.05938 15.26535 11342 ft 329 kts 339°
2026-05-01 07:38 47.08064 15.25029 11800 ft 347 kts 339°
2026-05-01 07:38 47.10255 15.23462 12586 ft 352 kts 339°
2026-05-01 07:38 47.14715 15.20257 14197 ft 361 kts 339°
2026-05-01 07:39 47.16984 15.18632 14916 ft 365 kts 340°
2026-05-01 07:39 47.19283 15.16989 15648 ft 370 kts 340°
2026-05-01 07:39 47.23960 15.13631 17061 ft 379 kts 339°
2026-05-01 07:40 47.26217 15.11500 17757 ft 394 kts 327°
2026-05-01 07:40 47.28157 15.08561 18473 ft 409 kts 313°
2026-05-01 07:40 47.29632 15.04897 19070 ft 424 kts 299°
2026-05-01 07:40 47.30502 15.00682 19651 ft 439 kts 284°
2026-05-01 07:41 47.30784 14.96156 20271 ft 446 kts 278°
2026-05-01 07:41 47.30983 14.91576 20858 ft 450 kts 278°
2026-05-01 07:41 47.31370 14.82296 21961 ft 457 kts 278°
2026-05-01 07:42 47.31566 14.77598 22484 ft 461 kts 278°
2026-05-01 07:42 47.31766 14.72866 22986 ft 465 kts 279°
2026-05-01 07:42 47.31965 14.68093 23468 ft 468 kts 279°
2026-05-01 07:42 47.32163 14.63287 23918 ft 471 kts 278°
2026-05-01 07:43 47.32362 14.58459 24362 ft 473 kts 278°
2026-05-01 07:43 47.32562 14.53605 24800 ft 475 kts 278°
2026-05-01 07:43 47.32955 14.43843 25562 ft 480 kts 279°
2026-05-01 07:44 47.33333 14.33971 26274 ft 485 kts 278°
2026-05-01 07:44 47.33715 14.23972 26428 ft 494 kts 278°
2026-05-01 07:45 47.33905 14.18911 26423 ft 495 kts 278°
2026-05-01 07:45 47.34094 14.13836 26418 ft 496 kts 278°
2026-05-01 07:45 47.34280 14.08762 26414 ft 496 kts 278°
2026-05-01 07:45 47.34468 14.03675 26416 ft 497 kts 278°
2026-05-01 07:46 47.34653 13.98588 26412 ft 497 kts 278°
2026-05-01 07:46 47.34831 13.93509 26412 ft 496 kts 278°
2026-05-01 07:46 47.35182 13.83350 26411 ft 496 kts 278°
2026-05-01 07:47 47.35353 13.78267 26381 ft 496 kts 278°
2026-05-01 07:47 47.35522 13.73199 26386 ft 494 kts 278°
2026-05-01 07:47 47.35691 13.68136 26392 ft 494 kts 278°
2026-05-01 07:47 47.35858 13.63081 26392 ft 493 kts 278°
2026-05-01 07:48 47.36178 13.52981 26388 ft 493 kts 277°
2026-05-01 07:48 47.36334 13.47929 26385 ft 492 kts 277°
2026-05-01 07:48 47.36491 13.42887 26384 ft 492 kts 277°
2026-05-01 07:49 47.36648 13.37843 26348 ft 491 kts 277°
2026-05-01 07:49 47.36947 13.27790 26377 ft 490 kts 277°
2026-05-01 07:49 47.37093 13.22771 26362 ft 490 kts 277°
2026-05-01 07:50 47.37236 13.17757 26357 ft 489 kts 277°
2026-05-01 07:50 47.37520 13.07725 26301 ft 488 kts 277°
2026-05-01 07:50 47.37656 13.02746 25357 ft 485 kts 277°
2026-05-01 07:51 47.37792 12.97752 24037 ft 490 kts 276°
2026-05-01 07:51 47.37927 12.92714 22651 ft 493 kts 276°
2026-05-01 07:51 47.38054 12.87703 21755 ft 485 kts 275°
2026-05-01 07:52 47.38298 12.77875 19999 ft 474 kts 275°
2026-05-01 07:52 47.38416 12.73039 19200 ft 469 kts 275°
2026-05-01 07:52 47.38532 12.68252 18349 ft 464 kts 274°
2026-05-01 07:53 47.38758 12.58841 16759 ft 452 kts 275°
2026-05-01 07:53 47.38868 12.54234 16152 ft 447 kts 274°
2026-05-01 07:53 47.38979 12.49651 15901 ft 446 kts 274°
2026-05-01 07:53 47.39086 12.45086 15652 ft 444 kts 274°
2026-05-01 07:54 47.39288 12.36021 15164 ft 439 kts 275°
2026-05-01 07:55 47.40431 12.22760 14428 ft 431 kts 280°
2026-05-01 07:55 47.41249 12.14034 13927 ft 427 kts 280°
2026-05-01 07:56 47.42414 12.01362 13145 ft 394 kts 280°
2026-05-01 07:56 47.42868 11.93580 12618 ft 370 kts 271°
2026-05-01 07:57 47.42672 11.89854 12355 ft 359 kts 263°
2026-05-01 07:57 47.41954 11.82794 11854 ft 339 kts 263°
2026-05-01 07:58 47.41282 11.76067 11364 ft 323 kts 263°
2026-05-01 07:58 47.40632 11.69626 10872 ft 312 kts 262°
2026-05-01 07:59 47.40009 11.63584 11917 ft 276 kts 263°
2026-05-01 07:59 47.39452 11.58203 13133 ft 260 kts 264°
2026-05-01 08:00 47.38362 11.47629 13390 ft 261 kts 263°
2026-05-01 08:01 47.37535 11.39713 13379 ft 260 kts 264°
2026-05-01 08:01 47.37248 11.36971 13392 ft 282 kts 263°
2026-05-01 08:01 47.36946 11.34078 13383 ft 288 kts 263°
2026-05-01 08:02 47.36327 11.28230 13382 ft 289 kts 263°
2026-05-01 08:02 47.36018 11.25310 13373 ft 286 kts 263°
2026-05-01 08:03 47.35402 11.19491 13380 ft 288 kts 263°
2026-05-01 08:03 47.35090 11.16577 13368 ft 288 kts 263°
2026-05-01 08:03 47.34462 11.10746 13367 ft 288 kts 263°
2026-05-01 08:04 47.33856 11.05112 13366 ft 264 kts 263°
2026-05-01 08:04 47.33286 10.99850 13349 ft 257 kts 263°
2026-05-01 08:05 47.32725 10.94647 13351 ft 258 kts 263°
2026-05-01 08:05 47.32441 10.92041 13357 ft 258 kts 263°
2026-05-01 08:05 47.32156 10.89434 13358 ft 256 kts 263°
2026-05-01 08:06 47.31601 10.84421 13349 ft 242 kts 263°
2026-05-01 08:06 47.31063 10.79557 13334 ft 240 kts 262°
2026-05-01 08:07 47.30528 10.74705 13337 ft 240 kts 262°
2026-05-01 08:07 47.29987 10.69865 13344 ft 240 kts 263°
2026-05-01 08:08 47.29718 10.67449 13330 ft 239 kts 262°
2026-05-01 08:08 47.29090 10.62651 13312 ft 239 kts 244°
2026-05-01 08:09 47.26972 10.60511 13311 ft 228 kts 173°
2026-05-01 08:09 47.25548 10.61257 13319 ft 215 kts 130°
2026-05-01 08:09 47.24902 10.63105 13319 ft 202 kts 87°
2026-05-01 08:10 47.26036 10.66785 13153 ft 206 kts 66°
2026-05-01 08:10 47.26662 10.70967 12465 ft 213 kts 78°
2026-05-01 08:11 47.27216 10.75300 11780 ft 219 kts 78°
2026-05-01 08:11 47.27778 10.79750 11074 ft 224 kts 79°
2026-05-01 08:12 47.28355 10.84328 10368 ft 230 kts 79°
2026-05-01 08:12 47.28651 10.86674 9800 ft 235 kts 78°
2026-05-01 08:12 47.29239 10.91345 8838 ft 225 kts 79°
2026-05-01 08:13 47.29516 10.93560 8463 ft 213 kts 79°
2026-05-01 08:13 47.29771 10.95601 8166 ft 194 kts 79°
2026-05-01 08:13 47.30230 10.99285 7558 ft 173 kts 80°
2026-05-01 08:14 47.30442 11.00981 7306 ft 163 kts 79°
2026-05-01 08:14 47.30639 11.02565 7075 ft 151 kts 80°
2026-05-01 08:14 47.30823 11.04042 6827 ft 143 kts 80°
2026-05-01 08:14 47.30968 11.05470 6606 ft 139 kts 86°
2026-05-01 08:15 47.30927 11.06881 6364 ft 138 kts 99°
2026-05-01 08:15 47.30293 11.09538 5921 ft 139 kts 115°
2026-05-01 08:15 47.29873 11.10813 5683 ft 138 kts 116°
2026-05-01 08:16 47.29452 11.12088 5449 ft 138 kts 115°
2026-05-01 08:16 47.29038 11.13342 5226 ft 138 kts 115°
2026-05-01 08:16 47.28618 11.14609 5008 ft 138 kts 115°
2026-05-01 08:16 47.28197 11.15874 4802 ft 138 kts 115°
2026-05-01 08:17 47.27776 11.17144 4609 ft 138 kts 115°
2026-05-01 08:17 47.27357 11.18408 4403 ft 137 kts 115°
2026-05-01 08:17 47.26939 11.19668 4204 ft 136 kts 116°
2026-05-01 08:17 47.26525 11.20919 3985 ft 135 kts 116°
2026-05-01 08:18 47.26114 11.22161 3750 ft 135 kts 116°
2026-05-01 08:18 47.25326 11.24663 3295 ft 134 kts 107°
2026-05-01 08:19 47.25256 11.27374 2850 ft 134 kts 80°
2026-05-01 08:19 47.25405 11.28721 2612 ft 133 kts 81°
2026-05-01 08:19 47.25563 11.30055 2439 ft 132 kts 81°
2026-05-01 08:19 47.25714 11.31390 2280 ft 132 kts 82°
2026-05-01 08:20 47.25859 11.32724 2005 ft 132 kts 82°
2026-05-01 08:20 47.25975 11.34004 1904 ft 109 kts 83°
2026-05-01 08:20 47.26048 11.34665 1904 ft 32 kts 78°
2026-05-01 08:20 47.26086 11.35026 1901 ft 28 kts 84°
2026-05-01 08:21 47.26103 11.35213 1904 ft 15 kts 101°
2026-05-01 08:21 47.26024 11.35273 1892 ft 13 kts 167°
2026-05-01 08:21 47.25971 11.35284 1894 ft 0 kts 175°
2026-05-01 08:21 47.25967 11.35285 1904 ft 1 kts 175°
2026-05-01 08:22 47.25962 11.35285 1904 ft 1 kts 175°
2026-05-01 08:22 47.25939 11.35289 1900 ft 7 kts 173°
2026-05-01 08:22 47.25904 11.35240 1904 ft 10 kts 242°
2026-05-01 08:22 47.25886 11.35125 1904 ft 10 kts 264°
2026-05-01 08:23 47.25878 11.35070 1894 ft 0 kts 250°
2026-05-01 08:23 47.25875 11.35060 1897 ft 5 kts 243°
2026-05-01 08:23 47.25828 11.35049 1904 ft 7 kts 171°
2026-05-01 08:23 47.25820 11.35051 1904 ft 0 kts 170°